Time;durP1;ratioP1;P1;durP2;ratioP2;P2;SDS_P1;SDS_P2;PMS_P1;PMS_P2;Temp;Humidity;BMP_temperature;BMP_pressure;BME280_temperature;BME280_humidity;BME280_pressure;Samples;Min_cycle;Max_cycle;Signal;HPM_P1;HPM_P2
2023/01/13 00:02:11;;;;;;;9.10;2.88;;;;;;;7.90;100.00;100289.16;5068282;28;20417;-65
2023/01/13 00:04:36;;;;;;;6.30;1.58;;;;;;;7.84;100.00;100285.50;5068877;28;20043;-65
2023/01/13 00:07:02;;;;;;;14.35;2.33;;;;;;;7.83;100.00;100288.88;5068845;28;20021;-65
2023/01/13 00:09:27;;;;;;;9.77;2.15;;;;;;;7.82;100.00;100298.34;5068417;28;20480;-65
2023/01/13 00:11:55;;;;;;;8.63;2.13;;;;;;;7.80;100.00;100300.00;5068603;28;20028;-65
2023/01/13 00:14:21;;;;;;;9.98;2.03;;;;;;;7.77;100.00;100294.75;5068906;28;20028;-65
2023/01/13 00:16:46;;;;;;;7.05;2.00;;;;;;;7.79;100.00;100293.97;5068741;28;20439;-65
2023/01/13 00:19:11;;;;;;;9.07;1.98;;;;;;;7.72;100.00;100293.72;5068502;28;20039;-65
2023/01/13 00:21:37;;;;;;;10.23;2.30;;;;;;;7.68;100.00;100275.53;5067364;28;20110;-65
2023/01/13 00:24:02;;;;;;;11.95;2.22;;;;;;;7.76;100.00;100282.66;5068401;28;20158;-65
2023/01/13 00:26:34;;;;;;;9.38;2.15;;;;;;;7.73;100.00;100269.66;5068248;28;20459;-65
2023/01/13 00:28:59;;;;;;;13.38;2.85;;;;;;;7.72;100.00;100267.91;5067985;28;20024;-65
2023/01/13 00:31:27;;;;;;;11.98;2.85;;;;;;;7.67;100.00;100260.00;5068400;28;20109;-65
2023/01/13 00:33:55;;;;;;;14.90;2.70;;;;;;;7.60;100.00;100258.91;5067890;28;20489;-65
2023/01/13 00:36:20;;;;;;;12.30;2.20;;;;;;;7.57;100.00;100256.25;5067506;28;20020;-65
2023/01/13 00:38:46;;;;;;;13.60;2.65;;;;;;;7.52;100.00;100253.47;5067970;28;20027;-66
2023/01/13 00:41:17;;;;;;;14.32;2.78;;;;;;;7.52;100.00;100242.31;5067613;28;20021;-65
2023/01/13 00:43:43;;;;;;;13.48;2.42;;;;;;;7.51;100.00;100246.59;5067581;28;20024;-65
2023/01/13 00:46:10;;;;;;;11.27;2.63;;;;;;;7.52;100.00;100244.88;5067724;28;20476;-65
2023/01/13 00:48:37;;;;;;;14.40;2.25;;;;;;;7.53;100.00;100233.75;5067453;28;20055;-65
2023/01/13 00:51:03;;;;;;;14.55;2.33;;;;;;;7.45;100.00;100244.66;5066783;28;20040;-64
2023/01/13 00:53:33;;;;;;;15.52;2.58;;;;;;;7.43;100.00;100238.56;5067168;28;20480;-65
2023/01/13 00:55:59;;;;;;;14.93;2.92;;;;;;;7.45;100.00;100236.94;5067549;28;20078;-65
2023/01/13 00:58:25;;;;;;;13.27;3.10;;;;;;;7.47;100.00;100234.41;5067394;28;20287;-65
2023/01/13 01:00:50;;;;;;;14.73;3.53;;;;;;;7.38;100.00;100240.09;5067542;28;20024;-65
2023/01/13 01:03:15;;;;;;;13.57;2.80;;;;;;;7.35;100.00;100242.59;5067368;28;20126;-65
2023/01/13 01:05:40;;;;;;;14.98;2.75;;;;;;;7.32;100.00;100237.31;5066695;28;20025;-65
2023/01/13 01:08:06;;;;;;;15.07;2.92;;;;;;;7.37;100.00;100238.38;5067329;28;20043;-64
2023/01/13 01:10:31;;;;;;;18.17;3.17;;;;;;;7.36;100.00;100249.47;5066912;28;20029;-65
2023/01/13 01:12:56;;;;;;;15.18;2.55;;;;;;;7.38;100.00;100258.16;5066829;28;20073;-65
2023/01/13 01:15:22;;;;;;;12.73;2.75;;;;;;;7.35;100.00;100259.75;5067119;28;20028;-65
2023/01/13 01:17:47;;;;;;;18.63;3.67;;;;;;;7.35;100.00;100252.00;5066782;28;20497;-65
2023/01/13 01:20:12;;;;;;;12.32;3.00;;;;;;;7.34;100.00;100261.44;5067029;28;20024;-65
2023/01/13 01:22:38;;;;;;;11.50;2.40;;;;;;;7.36;100.00;100249.47;5067556;28;20077;-65
2023/01/13 01:25:03;;;;;;;20.58;4.15;;;;;;;7.36;100.00;100261.50;5067226;28;20052;-65
2023/01/13 01:27:29;;;;;;;12.82;2.40;;;;;;;7.36;100.00;100249.47;5067206;28;20036;-65
2023/01/13 01:29:54;;;;;;;16.20;3.45;;;;;;;7.38;100.00;100255.56;5067025;28;20024;-65
2023/01/13 01:32:19;;;;;;;11.38;3.05;;;;;;;7.42;100.00;100257.44;5066412;28;20105;-65
2023/01/13 01:34:44;;;;;;;11.93;2.50;;;;;;;7.40;100.00;100259.09;5066958;28;20029;-64
2023/01/13 01:37:10;;;;;;;10.65;2.65;;;;;;;7.39;100.00;100267.66;5067391;28;20380;-65
2023/01/13 01:39:35;;;;;;;12.10;2.75;;;;;;;7.41;100.00;100255.69;5066796;28;20076;-65
2023/01/13 01:44:52;;;;;;;16.23;2.80;;;;;;;7.30;100.00;100265.59;5066552;28;20031;-65
2023/01/13 01:47:19;;;;;;;13.10;2.88;;;;;;;7.28;100.00;100267.28;5066947;28;20116;-64
2023/01/13 01:49:45;;;;;;;15.20;3.40;;;;;;;7.30;100.00;100277.63;5066720;28;20050;-65
2023/01/13 01:52:19;;;;;;;14.32;2.83;;;;;;;7.31;100.00;100261.31;5066299;28;20028;-65
2023/01/13 01:55:02;;;;;;;18.98;4.32;;;;;;;7.26;100.00;100268.03;5066871;28;20095;-65
2023/01/13 01:57:39;;;;;;;16.98;4.18;;;;;;;7.27;100.00;100265.50;5067010;28;20069;-65
2023/01/13 02:00:06;;;;;;;14.10;3.55;;;;;;;7.21;100.00;100258.41;5067057;28;20055;-65
2023/01/13 02:02:31;;;;;;;16.92;2.97;;;;;;;7.18;100.00;100257.41;5066590;28;20260;-65
2023/01/13 02:04:58;;;;;;;18.02;3.60;;;;;;;7.16;100.00;100270.25;5066979;28;20029;-65
2023/01/13 02:07:26;;;;;;;18.20;3.72;;;;;;;7.18;100.00;100253.16;5066764;28;20262;-64
2023/01/13 02:09:54;;;;;;;15.80;3.17;;;;;;;7.15;100.00;100254.75;5066869;28;20028;-64
2023/01/13 02:12:31;;;;;;;18.10;3.72;;;;;;;7.13;100.00;100256.38;5066176;28;20472;-65
2023/01/13 02:15:00;;;;;;;13.80;3.38;;;;;;;7.09;100.00;100252.81;5066245;28;20102;-65
2023/01/13 02:17:51;;;;;;;13.93;3.42;;;;;;;7.07;100.00;100251.88;5066740;28;20036;-65
2023/01/13 02:20:47;;;;;;;26.38;6.03;;;;;;;7.03;100.00;100248.34;5065863;28;20032;-64
2023/01/13 02:26:25;;;;;;;21.85;4.50;;;;;;;7.00;100.00;100252.50;5070098;28;20086;-65
2023/01/13 02:31:56;;;;;;;16.55;4.30;;;;;;;6.93;100.00;100244.53;5070279;28;20075;-64
2023/01/13 02:34:39;;;;;;;16.73;4.30;;;;;;;6.93;100.00;100262.56;5070021;28;20085;-64
2023/01/13 02:37:15;;;;;;;17.75;3.75;;;;;;;6.89;100.00;100257.25;5070193;28;20029;-65
2023/01/13 02:39:56;;;;;;;20.23;4.38;;;;;;;6.87;100.00;100256.31;5070364;28;20028;-65
2023/01/13 02:45:31;;;;;;;25.23;3.95;;;;;;;6.82;100.00;100236.38;5070557;28;20052;-65
2023/01/13 02:47:58;;;;;;;15.25;3.53;;;;;;;6.93;100.00;100235.91;5070288;28;20021;-65
2023/01/13 02:50:40;;;;;;;12.05;3.28;;;;;;;6.91;100.00;100228.13;5069719;28;20127;-64
2023/01/13 02:53:21;;;;;;;14.27;3.60;;;;;;;6.97;100.00;100228.38;5069622;28;20024;-65
2023/01/13 02:55:51;;;;;;;19.17;3.60;;;;;;;6.98;100.00;100239.53;5070959;28;20020;-64
2023/01/13 02:58:23;;;;;;;17.75;3.97;;;;;;;7.01;100.00;100236.19;5070088;28;20473;-65
2023/01/13 03:00:49;;;;;;;18.85;3.72;;;;;;;7.02;100.00;100236.25;5069992;28;20039;-64
2023/01/13 03:03:14;;;;;;;19.00;3.90;;;;;;;7.02;100.00;100227.63;5070022;28;20498;-65
2023/01/13 03:05:42;;;;;;;18.70;3.63;;;;;;;7.04;100.00;100216.59;5069598;28;20358;-64
2023/01/13 03:08:30;;;;;;;16.67;3.83;;;;;;;7.05;100.00;100220.03;5070094;28;20350;-64
2023/01/13 03:11:02;;;;;;;16.50;2.85;;;;;;;7.06;100.00;100216.63;5070236;28;20036;-65
2023/01/13 03:14:06;;;;;;;13.57;3.25;;;;;;;7.05;100.00;100222.63;5069862;28;20113;-64
2023/01/13 03:16:51;;;;;;;18.48;3.13;;;;;;;7.04;100.00;100206.28;5069168;28;20016;-64
2023/01/13 03:19:41;;;;;;;15.40;3.17;;;;;;;7.08;100.00;100226.19;5069456;28;20028;-64
2023/01/13 03:22:06;;;;;;;19.02;4.38;;;;;;;7.13;100.00;100216.03;5069797;28;20017;-65
2023/01/13 03:24:38;;;;;;;19.98;3.80;;;;;;;7.16;100.00;100213.56;5069607;28;20029;-64
2023/01/13 03:27:21;;;;;;;14.07;3.70;;;;;;;7.18;100.00;100216.19;5069392;28;20028;-64
2023/01/13 03:30:05;;;;;;;12.15;2.70;;;;;;;7.26;100.00;100209.63;5069060;28;20109;-65
2023/01/13 03:32:39;;;;;;;13.10;2.42;;;;;;;7.28;100.00;100207.09;5069463;28;20484;-65
2023/01/13 03:35:15;;;;;;;19.15;3.25;;;;;;;7.24;100.00;100206.13;5068693;28;20106;-65
2023/01/13 03:37:46;;;;;;;13.35;2.78;;;;;;;7.28;100.00;100208.00;5069192;28;20147;-65
2023/01/13 03:40:20;;;;;;;6.95;2.38;;;;;;;7.30;100.00;100208.03;5069014;28;20056;-64
2023/01/13 03:45:38;;;;;;;10.27;2.28;;;;;;;7.30;100.00;100218.34;5069688;28;20062;-65
2023/01/13 03:48:09;;;;;;;10.02;1.83;;;;;;;7.30;100.00;100214.03;5066512;28;20039;-64
2023/01/13 03:50:40;;;;;;;11.75;1.83;;;;;;;7.32;100.00;100211.56;5069043;28;20484;-65
2023/01/13 03:53:29;;;;;;;6.78;1.23;;;;;;;7.32;100.00;100209.81;5068631;28;20107;-64
2023/01/13 03:56:04;;;;;;;5.15;1.23;;;;;;;7.35;100.00;100209.06;5068808;28;20143;-64
2023/01/13 03:58:34;;;;;;;5.10;0.60;;;;;;;7.31;100.00;100209.78;5068560;28;20499;-64
2023/01/13 04:01:17;;;;;;;2.35;0.68;;;;;;;7.32;100.00;100206.41;5068383;28;20480;-64
2023/01/13 04:03:57;;;;;;;3.63;1.40;;;;;;;7.32;100.00;100194.38;5068454;28;20029;-64
2023/01/13 04:06:31;;;;;;;6.45;0.70;;;;;;;7.26;100.00;100209.63;5067996;28;20032;-65
2023/01/13 04:09:05;;;;;;;5.25;1.10;;;;;;;7.27;100.00;100207.91;5068350;28;20081;-64
2023/01/13 04:11:37;;;;;;;4.05;1.10;;;;;;;7.27;100.00;100201.06;5068034;28;20143;-65
2023/01/13 04:14:04;;;;;;;5.72;1.25;;;;;;;7.28;100.00;100208.00;5067896;28;20020;-64
2023/01/13 04:16:30;;;;;;;8.13;1.90;;;;;;;7.18;100.00;100214.50;5068109;28;20033;-64
2023/01/13 04:18:55;;;;;;;5.68;1.05;;;;;;;7.14;100.00;100224.66;5068291;28;20047;-64
2023/01/13 04:21:21;;;;;;;5.88;1.40;;;;;;;7.19;100.00;100226.59;5068183;28;20153;-64
2023/01/13 04:23:50;;;;;;;6.20;1.52;;;;;;;7.08;100.00;100233.03;5067460;28;20437;-64
2023/01/13 04:26:15;;;;;;;8.75;1.92;;;;;;;7.06;100.00;100239.81;5067893;28;20412;-64
2023/01/13 04:28:41;;;;;;;5.50;1.20;;;;;;;7.02;100.00;100255.97;5068284;28;20024;-64
2023/01/13 04:31:06;;;;;;;4.78;1.40;;;;;;;7.02;100.00;100248.25;5067962;28;20485;-64
2023/01/13 04:33:31;;;;;;;7.80;1.73;;;;;;;6.89;100.00;100252.94;5067086;28;20021;-65
2023/01/13 04:35:56;;;;;;;4.90;1.58;;;;;;;6.91;100.00;100242.69;5067894;28;20024;-64
2023/01/13 04:38:22;;;;;;;8.75;2.03;;;;;;;6.88;100.00;100240.91;5067778;28;20020;-64
2023/01/13 04:40:47;;;;;;;6.15;2.00;;;;;;;6.87;100.00;100231.44;5067696;28;20021;-64
2023/01/13 04:43:14;;;;;;;8.05;1.85;;;;;;;6.82;100.00;100233.81;5067760;28;20331;-64
2023/01/13 04:45:40;;;;;;;6.47;1.77;;;;;;;6.82;100.00;100232.94;5066839;28;20432;-64
2023/01/13 04:48:06;;;;;;;9.32;1.80;;;;;;;6.79;100.00;100237.97;5067293;28;20161;-65
2023/01/13 04:50:32;;;;;;;10.95;1.92;;;;;;;6.76;100.00;100240.44;5067417;28;20120;-64
2023/01/13 04:52:59;;;;;;;11.50;2.45;;;;;;;6.85;100.00;100233.06;5067542;28;20025;-64
2023/01/13 04:55:24;;;;;;;11.93;2.33;;;;;;;6.86;100.00;100229.66;5068050;28;20013;-64
2023/01/13 04:57:50;;;;;;;11.18;2.85;;;;;;;6.87;100.00;100228.84;5066999;28;20263;-64
2023/01/13 05:00:18;;;;;;;14.60;2.40;;;;;;;6.90;100.00;100221.22;5067415;28;20032;-65
2023/01/13 05:02:43;;;;;;;7.40;2.70;;;;;;;6.96;100.00;100211.13;5067489;28;20082;-65
2023/01/13 05:05:09;;;;;;;14.90;2.75;;;;;;;6.91;100.00;100212.66;5067494;28;20380;-64
2023/01/13 05:07:34;;;;;;;9.68;2.63;;;;;;;6.87;100.00;100213.41;5066540;28;20039;-65
2023/01/13 05:10:00;;;;;;;7.35;1.77;;;;;;;6.90;100.00;100225.50;5067222;28;20508;-64
2023/01/13 05:17:58;;;;;;;9.98;2.03;;;;;;;6.83;100.00;100208.94;5067323;28;20039;-64
2023/01/13 05:20:24;;;;;;;11.30;1.90;;;;;;;6.81;100.00;100213.16;5066803;28;20033;-64
2023/01/13 05:25:36;;;;;;;16.70;2.20;;;;;;;6.83;100.00;100222.72;5067361;28;20040;-64
2023/01/13 05:28:01;;;;;;;12.25;2.33;;;;;;;6.74;100.00;100212.06;5067237;28;20043;-64
2023/01/13 05:30:30;;;;;;;13.27;2.65;;;;;;;6.73;100.00;100216.31;5067000;28;20024;-64
2023/01/13 05:32:56;;;;;;;9.40;2.35;;;;;;;6.74;100.00;100214.63;5067257;28;20036;-64
2023/01/13 05:35:21;;;;;;;10.18;2.05;;;;;;;6.75;100.00;100224.09;5067483;28;20028;-64
2023/01/13 05:37:47;;;;;;;7.53;1.73;;;;;;;6.70;100.00;100223.06;5067104;28;20567;-65
2023/01/13 05:43:19;;;;;;;8.73;1.88;;;;;;;6.65;100.00;100224.56;5066897;28;20054;-64
2023/01/13 05:45:53;;;;;;;9.65;2.10;;;;;;;6.57;100.00;100232.00;5067263;28;20116;-64
2023/01/13 05:48:20;;;;;;;12.45;2.17;;;;;;;6.63;100.00;100236.50;5067049;28;20039;-64
2023/01/13 05:50:48;;;;;;;14.00;2.03;;;;;;;6.61;100.00;100233.88;5067012;28;20067;-64
2023/01/13 05:53:13;;;;;;;9.23;1.85;;;;;;;6.58;100.00;100238.91;5066790;28;20495;-64
2023/01/13 05:55:40;;;;;;;13.20;2.08;;;;;;;6.52;100.00;100249.84;5066482;28;20025;-64
2023/01/13 05:58:07;;;;;;;8.20;2.63;;;;;;;6.53;100.00;100241.28;5069278;28;20040;-64
2023/01/13 06:00:32;;;;;;;9.50;1.92;;;;;;;6.49;100.00;100249.72;5071051;28;20583;-63
2023/01/13 06:02:57;;;;;;;13.38;1.92;;;;;;;6.47;100.00;100241.97;5070311;28;20035;-63
2023/01/13 06:05:22;;;;;;;12.20;1.95;;;;;;;6.53;100.00;100248.16;5070916;28;20024;-64
2023/01/13 06:07:48;;;;;;;8.40;1.77;;;;;;;6.45;100.00;100269.31;5070792;28;20033;-64
2023/01/13 06:10:13;;;;;;;14.10;3.60;;;;;;;6.46;100.00;100270.19;5070815;28;20483;-64
2023/01/13 06:12:38;;;;;;;14.07;2.95;;;;;;;6.49;100.00;100270.31;5070393;28;20028;-64
2023/01/13 06:15:04;;;;;;;11.70;2.42;;;;;;;6.49;100.00;100273.75;5070600;28;20032;-63
2023/01/13 06:17:30;;;;;;;7.00;1.90;;;;;;;6.43;100.00;100275.22;5070143;28;20032;-63
2023/01/13 06:19:55;;;;;;;8.63;1.83;;;;;;;6.42;100.00;100284.63;5070228;28;20035;-64
2023/01/13 06:22:20;;;;;;;9.32;2.70;;;;;;;6.40;100.00;100295.69;5070487;28;20062;-64
2023/01/13 06:24:45;;;;;;;11.18;2.63;;;;;;;6.38;100.00;100293.06;5070262;28;20029;-64
2023/01/13 06:27:11;;;;;;;10.68;2.30;;;;;;;6.34;100.00;100296.31;5070257;28;20032;-64
2023/01/13 06:29:37;;;;;;;14.23;3.58;;;;;;;6.35;100.00;100290.38;5069534;28;20028;-64
2023/01/13 06:32:06;;;;;;;9.98;2.72;;;;;;;6.31;100.00;100296.19;5070231;28;20040;-64
2023/01/13 06:34:34;;;;;;;8.13;2.53;;;;;;;6.30;100.00;100294.44;5070198;28;20031;-64
2023/01/13 06:37:02;;;;;;;12.30;1.98;;;;;;;6.30;100.00;100294.44;5069768;28;20472;-64
2023/01/13 06:39:30;;;;;;;13.98;2.58;;;;;;;6.30;100.00;100299.56;5069918;28;20028;-64
2023/01/13 06:44:40;;;;;;;9.32;2.33;;;;;;;6.29;100.00;100303.88;5070213;28;20098;-64
2023/01/13 06:47:05;;;;;;;8.40;2.20;;;;;;;6.30;100.00;100300.47;5069963;28;20044;-64
2023/01/13 06:49:31;;;;;;;11.02;2.33;;;;;;;6.29;100.00;100284.97;5069016;28;20033;-63
2023/01/13 06:51:56;;;;;;;14.30;2.38;;;;;;;6.30;100.00;100287.59;5069792;28;20072;-64
2023/01/13 06:54:21;;;;;;;13.23;1.90;;;;;;;6.29;100.00;100297.84;5069593;28;20464;-63
2023/01/13 06:56:47;;;;;;;12.82;2.80;;;;;;;6.31;100.00;100281.66;5069334;28;20486;-64
2023/01/13 06:59:12;;;;;;;13.20;2.95;;;;;;;6.32;100.00;100282.50;5069954;28;20020;-63
2023/01/13 07:01:38;;;;;;;15.45;3.15;;;;;;;6.31;100.00;100276.50;5069850;28;20123;-64
2023/01/13 07:04:03;;;;;;;15.50;2.78;;;;;;;6.35;100.00;100292.94;5069838;28;20056;-64
2023/01/13 07:06:28;;;;;;;13.45;2.33;;;;;;;6.31;100.00;100291.06;5069525;28;20115;-64
2023/01/13 07:08:54;;;;;;;12.23;2.88;;;;;;;6.31;100.00;100291.06;5067086;28;20016;-63
2023/01/13 07:11:19;;;;;;;11.43;2.20;;;;;;;6.35;100.00;100293.81;5069283;28;20024;-64
2023/01/13 07:16:28;;;;;;;8.13;1.65;;;;;;;6.40;100.00;100301.72;5069453;28;20484;-64
2023/01/13 07:18:53;;;;;;;11.65;2.70;;;;;;;6.37;100.00;100301.59;5069854;28;20025;-64
2023/01/13 07:21:19;;;;;;;10.50;1.92;;;;;;;6.41;100.00;100303.47;5068993;28;20032;-63
2023/01/13 07:23:46;;;;;;;11.80;2.85;;;;;;;6.45;100.00;100307.94;5068963;28;20107;-64
2023/01/13 07:26:12;;;;;;;14.45;2.45;;;;;;;6.45;100.00;100307.94;5067281;28;20074;-64
2023/01/13 07:28:38;;;;;;;10.68;2.47;;;;;;;6.40;100.00;100300.84;5067992;28;20056;-64
2023/01/13 07:31:04;;;;;;;12.73;2.97;;;;;;;6.37;100.00;100296.44;5067019;28;20111;-66
2023/01/13 07:33:32;;;;;;;11.63;2.28;;;;;;;6.40;100.00;100296.59;5067622;28;20437;-64
2023/01/13 07:36:00;;;;;;;12.60;2.55;;;;;;;6.45;100.00;100304.47;5067633;28;20273;-64
2023/01/13 07:38:25;;;;;;;9.80;2.15;;;;;;;6.40;100.00;100312.03;5066755;28;20549;-63
2023/01/13 07:40:51;;;;;;;9.10;2.20;;;;;;;6.40;100.00;100316.28;5068264;28;20068;-64
2023/01/13 07:43:31;;;;;;;7.78;1.73;;;;;;;6.35;100.00;100323.84;5066589;28;20017;-63
2023/01/13 07:46:01;;;;;;;12.60;2.90;;;;;;;6.39;100.00;100325.69;5068906;28;20549;-64
2023/01/13 07:48:28;;;;;;;10.02;2.13;;;;;;;6.41;100.00;100329.22;5068847;28;20038;-64
2023/01/13 07:50:54;;;;;;;15.27;2.30;;;;;;;6.40;100.00;100329.16;5068177;28;20048;-64
2023/01/13 07:53:20;;;;;;;9.52;2.13;;;;;;;6.37;100.00;100332.47;5068376;28;20032;-63
2023/01/13 07:55:46;;;;;;;13.88;2.92;;;;;;;6.41;100.00;100334.34;5068488;28;20031;-63
2023/01/13 07:58:11;;;;;;;11.45;2.97;;;;;;;6.39;100.00;100336.00;5067857;28;20028;-64
2023/01/13 08:00:37;;;;;;;12.48;1.95;;;;;;;6.49;100.00;100330.41;5068730;28;20028;-64
2023/01/13 08:03:03;;;;;;;12.60;2.75;;;;;;;6.47;100.00;100328.59;5068779;28;20028;-64
2023/01/13 08:05:29;;;;;;;11.00;3.15;;;;;;;6.43;100.00;100335.31;5068359;28;20530;-64
2023/01/13 08:07:54;;;;;;;16.45;2.88;;;;;;;6.41;100.00;100324.06;5068082;28;20431;-64
2023/01/13 08:10:19;;;;;;;9.48;2.55;;;;;;;6.45;100.00;100335.38;5068573;28;20388;-63
2023/01/13 08:15:30;;;;;;;13.85;3.20;;;;;;;6.48;100.00;100336.38;5068087;28;20049;-64
2023/01/13 08:17:56;;;;;;;13.82;3.42;;;;;;;6.42;100.00;100327.53;5068498;28;20029;-63
2023/01/13 08:20:21;;;;;;;16.73;2.67;;;;;;;6.43;100.00;100339.56;5067674;28;20088;-64
2023/01/13 08:22:47;;;;;;;15.52;2.70;;;;;;;6.43;100.00;100331.84;5068720;28;20052;-64
2023/01/13 08:25:12;;;;;;;11.65;3.35;;;;;;;6.43;100.00;100330.16;5068438;28;20044;-64
2023/01/13 08:27:37;;;;;;;14.15;3.15;;;;;;;6.42;100.00;100343.81;5068264;28;20032;-63
2023/01/13 08:30:04;;;;;;;17.25;2.90;;;;;;;6.48;100.00;100338.06;5067806;28;20120;-64
2023/01/13 08:32:30;;;;;;;11.52;2.85;;;;;;;6.50;100.00;100346.72;5067538;28;20036;-64
2023/01/13 08:34:55;;;;;;;13.45;2.63;;;;;;;6.52;100.00;100347.66;5066063;28;20041;-65
2023/01/13 08:37:20;;;;;;;13.73;2.70;;;;;;;6.55;100.00;100352.94;5068014;28;20033;-64
2023/01/13 08:39:46;;;;;;;9.90;2.75;;;;;;;6.58;100.00;100350.47;5067857;28;20055;-64
2023/01/13 08:42:11;;;;;;;15.57;2.80;;;;;;;6.60;100.00;100346.28;5067632;28;20044;-64
2023/01/13 08:44:36;;;;;;;14.52;3.05;;;;;;;6.71;100.00;100349.28;5067196;28;20031;-64
2023/01/13 08:47:03;;;;;;;12.07;3.05;;;;;;;6.69;100.00;100356.06;5067748;28;20094;-64
2023/01/13 08:49:28;;;;;;;13.00;2.80;;;;;;;6.70;100.00;100349.22;5067795;28;20028;-64
2023/01/13 08:51:53;;;;;;;16.92;3.63;;;;;;;6.76;100.00;100351.19;5067704;28;20034;-64
2023/01/13 08:54:19;;;;;;;11.57;2.50;;;;;;;6.81;100.00;100350.53;5067755;28;20389;-64
2023/01/13 08:56:45;;;;;;;11.23;2.67;;;;;;;6.88;100.00;100366.22;5067206;28;20024;-64
2023/01/13 08:59:12;;;;;;;13.70;2.88;;;;;;;6.90;100.00;100359.44;5067430;28;20522;-64
2023/01/13 09:01:38;;;;;;;17.48;3.20;;;;;;;6.96;100.00;100365.72;5067768;28;20380;-64
2023/01/13 09:04:04;;;;;;;16.25;3.72;;;;;;;7.00;100.00;100373.59;5067815;28;20024;-64
2023/01/13 09:06:30;;;;;;;12.68;3.00;;;;;;;6.98;100.00;100358.03;5067168;28;20021;-65
2023/01/13 09:08:55;;;;;;;12.60;2.60;;;;;;;7.00;100.00;100381.31;5067516;28;20080;-64
2023/01/13 09:14:22;;;;;;;12.30;2.80;;;;;;;6.99;100.00;100375.28;5067335;28;20534;-64
2023/01/13 09:16:47;;;;;;;18.48;4.55;;;;;;;6.95;100.00;100388.84;5067010;28;20016;-64
2023/01/13 09:19:12;;;;;;;13.95;3.55;;;;;;;6.92;100.00;100389.63;5067385;28;20082;-64
2023/01/13 09:21:38;;;;;;;15.38;3.45;;;;;;;6.99;100.00;100384.69;5066972;28;20052;-64
2023/01/13 09:24:03;;;;;;;15.93;3.17;;;;;;;7.03;100.00;100384.00;5067543;28;20024;-64
2023/01/13 09:26:28;;;;;;;16.05;4.30;;;;;;;7.12;100.00;100386.06;5067820;28;20119;-64
2023/01/13 09:28:54;;;;;;;13.95;3.00;;;;;;;7.23;100.00;100389.06;5067853;28;20028;-64
2023/01/13 09:31:19;;;;;;;12.43;3.08;;;;;;;7.36;100.00;100395.56;5067138;28;20028;-64
2023/01/13 09:36:28;;;;;;;11.60;2.65;;;;;;;7.52;100.00;100397.03;5071906;28;20190;-64
2023/01/13 09:38:53;;;;;;;17.42;4.13;;;;;;;7.53;100.00;100401.34;5071450;28;20096;-64
2023/01/13 09:44:12;;;;;;;16.58;3.80;;;;;;;7.45;100.00;100401.94;5070850;28;20081;-65
2023/01/13 09:46:48;;;;;;;14.27;3.88;;;;;;;7.41;100.00;100412.94;5070755;28;20020;-64
2023/01/13 09:49:21;;;;;;;15.20;3.60;;;;;;;7.39;100.00;100414.59;5070976;28;20564;-64
2023/01/13 09:52:02;;;;;;;17.05;3.65;;;;;;;7.42;100.00;100419.88;5070866;28;20049;-64
2023/01/13 09:54:32;;;;;;;13.70;2.83;;;;;;;7.34;100.00;100410.94;5071036;28;20021;-64
2023/01/13 09:56:58;;;;;;;23.17;3.70;;;;;;;7.29;100.00;100407.31;5071001;28;20061;-64
2023/01/13 09:59:31;;;;;;;14.15;3.83;;;;;;;7.31;100.00;100416.00;5070542;28;20024;-64
2023/01/13 10:02:03;;;;;;;13.15;3.13;;;;;;;7.28;100.00;100423.59;5071157;28;20029;-64
2023/01/13 10:04:28;;;;;;;18.08;3.92;;;;;;;7.31;100.00;100416.88;5070748;28;20020;-64
2023/01/13 10:06:59;;;;;;;20.25;3.83;;;;;;;7.28;100.00;100431.34;5070422;28;20090;-65
2023/01/13 10:09:32;;;;;;;14.57;3.65;;;;;;;7.25;100.00;100426.94;5070816;28;20048;-64
2023/01/13 10:14:53;;;;;;;15.10;3.17;;;;;;;7.28;100.00;100433.91;5070959;28;20040;-64
2023/01/13 10:17:28;;;;;;;17.98;3.22;;;;;;;7.29;100.00;100435.66;5070970;28;20024;-65
2023/01/13 10:20:05;;;;;;;17.15;3.13;;;;;;;7.36;100.00;100437.66;5070322;28;20479;-64
2023/01/13 10:22:55;;;;;;;17.33;4.18;;;;;;;7.42;100.00;100444.75;5070480;28;20536;-64
2023/01/13 10:25:35;;;;;;;21.05;3.40;;;;;;;7.45;100.00;100448.34;5070680;28;20400;-65
2023/01/13 10:28:07;;;;;;;20.67;4.47;;;;;;;7.43;100.00;100438.78;5070211;28;20059;-64
2023/01/13 10:30:37;;;;;;;11.93;3.03;;;;;;;7.42;100.00;100437.03;5069779;28;20237;-65
2023/01/13 10:33:24;;;;;;;17.02;4.43;;;;;;;7.37;100.00;100447.19;5070612;28;20389;-65
2023/01/13 10:36:01;;;;;;;21.90;4.35;;;;;;;7.35;100.00;100459.13;5070336;28;20025;-64
2023/01/13 10:38:43;;;;;;;20.33;4.45;;;;;;;7.29;100.00;100466.59;5070422;28;20086;-64
2023/01/13 10:41:11;;;;;;;13.05;3.50;;;;;;;7.25;100.00;100460.44;5070187;28;20024;-64
2023/01/13 10:43:37;;;;;;;12.98;3.67;;;;;;;7.21;100.00;100477.47;5069408;28;20064;-64
2023/01/13 10:46:11;;;;;;;16.35;3.45;;;;;;;7.12;100.00;100474.56;5069936;28;20091;-64
2023/01/13 10:48:42;;;;;;;12.98;3.70;;;;;;;7.01;100.00;100496.41;5069607;28;20033;-64
2023/01/13 10:51:20;;;;;;;20.15;4.20;;;;;;;6.92;100.00;100491.78;5069796;28;20052;-65
2023/01/13 10:54:11;;;;;;;16.13;3.67;;;;;;;6.82;100.00;100486.22;5069575;28;20078;-65
2023/01/13 10:56:38;;;;;;;16.75;4.43;;;;;;;6.78;100.00;100479.19;5069532;28;20032;-64
2023/01/13 10:59:22;;;;;;;15.77;3.72;;;;;;;6.76;100.00;100490.25;5069823;28;20028;-64
2023/01/13 11:02:34;;;;;;;18.73;4.43;;;;;;;6.72;100.00;100478.94;5069976;28;20059;-64
2023/01/13 11:05:23;;;;;;;18.52;4.40;;;;;;;6.69;100.00;100482.25;5069391;28;20052;-64
2023/01/13 11:07:51;;;;;;;16.02;4.13;;;;;;;6.67;100.00;100491.63;5069948;28;20039;-64
2023/01/13 11:10:28;;;;;;;20.80;3.85;;;;;;;6.67;100.00;100486.47;5069422;28;20028;-64
2023/01/13 11:13:08;;;;;;;18.60;3.67;;;;;;;6.68;100.00;100480.50;5069486;28;20301;-64
2023/01/13 11:15:53;;;;;;;18.30;3.67;;;;;;;6.69;100.00;100484.81;5069501;28;20708;-64
2023/01/13 11:18:38;;;;;;;23.90;3.58;;;;;;;6.73;100.00;100497.03;5069460;28;20496;-64
2023/01/13 11:21:11;;;;;;;15.20;3.55;;;;;;;6.75;100.00;100476.47;5069271;28;20033;-64
2023/01/13 11:23:43;;;;;;;13.80;3.72;;;;;;;6.77;100.00;100492.00;5069322;28;20059;-64
2023/01/13 11:26:26;;;;;;;16.80;2.88;;;;;;;6.79;100.00;100492.94;5069474;28;20120;-65
2023/01/13 11:29:03;;;;;;;14.38;3.63;;;;;;;6.80;100.00;100497.31;5069463;28;20399;-64
2023/01/13 11:31:47;;;;;;;17.42;3.50;;;;;;;6.82;100.00;100498.22;5068826;28;20032;-64
2023/01/13 11:34:32;;;;;;;17.08;3.63;;;;;;;6.83;100.00;100508.63;5069540;28;20146;-64
2023/01/13 11:37:03;;;;;;;18.00;3.28;;;;;;;6.86;100.00;100507.84;5069371;28;20028;-64
2023/01/13 11:39:47;;;;;;;;;;;;;;;6.92;100.00;100512.38;5069494;28;20059;-64
2023/01/13 11:42:34;;;;;;;14.77;3.40;;;;;;;6.95;100.00;100508.22;5069371;28;19958;-64
2023/01/13 11:45:06;;;;;;;17.45;4.32;;;;;;;6.97;100.00;100506.59;5068386;28;20026;-65
2023/01/13 11:47:33;;;;;;;11.77;3.00;;;;;;;7.02;100.00;100505.91;5069093;28;20042;-64
2023/01/13 11:50:00;;;;;;;18.10;3.15;;;;;;;7.04;100.00;100527.47;5068881;28;20234;-64
2023/01/13 11:52:28;;;;;;;16.60;3.97;;;;;;;7.05;100.00;100517.22;5068966;28;20795;-64
2023/01/13 11:55:15;;;;;;;15.80;3.22;;;;;;;7.07;100.00;100517.25;5068303;28;20111;-65
2023/01/13 11:58:03;;;;;;;20.42;4.50;;;;;;;7.08;100.00;100532.81;5068053;28;20023;-65
2023/01/13 12:00:34;;;;;;;17.15;3.80;;;;;;;7.12;100.00;100525.22;5068154;28;20508;-64
2023/01/13 12:03:09;;;;;;;16.17;3.03;;;;;;;7.11;100.00;100518.28;5068710;28;20052;-64
2023/01/13 12:05:43;;;;;;;16.70;3.42;;;;;;;7.09;100.00;100526.84;5068447;28;20029;-65
2023/01/13 12:08:16;;;;;;;12.95;2.63;;;;;;;7.10;100.00;100527.72;5068284;28;20039;-64
2023/01/13 12:11:10;;;;;;;17.67;3.33;;;;;;;7.12;100.00;100523.53;5068706;28;20024;-64
2023/01/13 12:13:53;;;;;;;11.63;2.72;;;;;;;7.13;100.00;100548.47;5068148;28;20028;-64
2023/01/13 12:16:24;;;;;;;10.40;2.60;;;;;;;7.17;100.00;100540.06;5068417;28;20086;-64
2023/01/13 12:19:16;;;;;;;16.83;3.00;;;;;;;7.19;100.00;100561.63;5067537;28;20074;-64